CMA CGM Musca — 2CAC8 — position and weather

sailwx.info

Track history (hours):
 
Tides and Currents Weather Stations Pressure Air Temp Water Temp Dewpoint Dewpoint Depression Visibility Wind Speed Wind Dir Waves Ship Positions

CMA CGM Musca

Last reported at 2014-Jul-29 02:31 UTC. Time now 2014-Jul-29 02:37 UTC.
Position N 30°30' E 122°29'.

Length 347 m; draft 13.7 m.

Type: Ship (hazmat cat A). MMSI: 235070914.

Date/timePositionNaut miles runAvg speedWind from/ knotsBaromVisibWave heightAir tempDewpointWater temp
2014-Jul-29 02:31N 30°30' E 122°29'0 0.1
2014-Jul-29 01:31N 30°30' E 122°29'0 0.3
2014-Jul-29 00:30N 30°29' E 122°29'0 0.1
2014-Jul-28 23:30N 30°29' E 122°29'0 0.0
2014-Jul-28 22:30N 30°29' E 122°29'0 0.0
2014-Jul-28 21:29N 30°29' E 122°29'0 0.0
2014-Jul-28 20:23N 30°30' E 122°29'0 0.0
2014-Jul-28 19:28N 30°30' E 122°29'0 0.1
2014-Jul-28 18:28N 30°30' E 122°29'0 0.2
2014-Jul-28 17:21N 30°30' E 122°29'0 0.2
2014-Jul-28 16:33N 30°30' E 122°29'0 0.1
2014-Jul-28 15:33N 30°30' E 122°29'0 0.0
2014-Jul-28 14:20N 30°30' E 122°29'0 0.1
2014-Jul-28 13:26N 30°30' E 122°29'0 0.1
2014-Jul-28 12:31N 30°30' E 122°29'0 0.2
2014-Jul-28 11:07N 30°29' E 122°29'0 0.1
2014-Jul-28 10:24N 30°29' E 122°29'0 0.0
2014-Jul-28 09:30N 30°29' E 122°29'0 0.1
2014-Jul-28 08:30N 30°30' E 122°29'0 0.1
2014-Jul-28 07:33N 30°29' E 122°29'5 5.3
2014-Jul-28 06:34N 30°32' E 122°35'10 9.9
2014-Jul-28 05:33N 30°35' E 122°46'1110.8
2014-Jul-28 04:33N 30°38' E 122°58'1110.8
2014-Jul-28 03:30N 30°42' E 123°10'1010.2
2014-Jul-28 02:33N 30°50' E 123°17'11 9.7
2014-Jul-28 01:24N 31°01' E 123°17'19211.8
2014-Jul-27 09:10N 34°09' E 122°29'1520.8
2014-Jul-27 08:28N 34°20' E 122°17'11719.9
2014-Jul-27 02:33N 35°51' E 120°48'1717.5
2014-Jul-27 01:33N 35°59' E 120°29'1312.8
2014-Jul-27 00:32N 36°00' E 120°13'1 0.4
2014-Jul-26 23:09N 36°00' E 120°12'0 0.0
2014-Jul-26 22:03N 36°00' E 120°12'0 0.0
2014-Jul-26 21:33N 36°00' E 120°12'0 0.0
2014-Jul-26 20:20N 36°00' E 120°12'0 0.0
2014-Jul-26 19:14N 36°00' E 120°12'0 0.0
2014-Jul-26 15:24N 36°00' E 120°12'0 0.0
2014-Jul-26 14:30N 36°00' E 120°12'0 0.0
2014-Jul-26 11:16N 36°00' E 120°12'0 0.0
2014-Jul-26 09:31N 36°00' E 120°12'0 0.0
2014-Jul-26 08:30N 36°00' E 120°12'0 0.0
2014-Jul-26 07:30N 36°00' E 120°12'0 0.0
2014-Jul-26 00:33N 36°00' E 120°12'0 0.0
2014-Jul-25 23:14N 36°00' E 120°12'1 1.8
2014-Jul-25 22:33N 36°01' E 120°13'9 9.3
2014-Jul-25 21:33N 36°01' E 120°25'1615.7
2014-Jul-25 20:33N 35°57' E 120°44'7 0.2
2014-Jul-24 10:05N 35°57' E 120°52'4 8.1
2014-Jul-24 09:33N 35°57' E 120°47'  
2014-Jul-21 19:51N 36°19' E 123°44'1519.6
2014-Jul-21 19:05N 36°32' E 123°35'1819.2
2014-Jul-21 18:08N 36°47' E 123°23'3018.9
2014-Jul-21 16:32N 37°14' E 123°06'2219.1
2014-Jul-21 15:22N 37°34' E 122°53'2619.8
2014-Jul-21 14:04N 37°57' E 122°37'5519.5
2014-Jul-21 11:16N 38°44' E 122°03'1216.7
2014-Jul-21 10:33N 38°55' E 121°55'4 0.1
2014-Jul-20 06:31N 38°58' E 121°57'9 9.8
2014-Jul-20 05:33N 38°49' E 121°56'2 1.6
2014-Jul-20 04:33N 38°47' E 121°57'0 0.0
2014-Jul-20 03:33N 38°47' E 121°57'0 0.0
2014-Jul-20 02:33N 38°47' E 121°57'0 0.1
2014-Jul-20 01:32N 38°47' E 121°57'0 0.1
2014-Jul-20 00:32N 38°47' E 121°57'0 0.0
2014-Jul-19 23:19N 38°47' E 121°57'0 0.0
2014-Jul-19 22:25N 38°47' E 121°57'0 0.0
2014-Jul-19 21:30N 38°47' E 121°57'0 0.0
2014-Jul-19 20:30N 38°47' E 121°57'0 0.0
2014-Jul-19 19:24N 38°47' E 121°57'0 0.1
2014-Jul-19 17:23N 38°47' E 121°57'0 0.0
2014-Jul-19 13:27N 38°48' E 121°58'0 0.1
2014-Jul-19 11:08N 38°47' E 121°57'0 0.0
2014-Jul-19 10:32N 38°47' E 121°57'0 0.0
2014-Jul-19 09:31N 38°47' E 121°57'0 0.0
2014-Jul-19 07:31N 38°47' E 121°57'7 7.7
2014-Jul-19 06:33N 38°43' E 121°50'1313.6
2014-Jul-19 05:34N 38°32' E 121°39'1414.1
2014-Jul-19 04:33N 38°30' E 121°21'  
Track history (hours):
 
Tides and Currents Weather Stations Pressure Air Temp Water Temp Dewpoint Dewpoint Depression Visibility Wind Speed Wind Dir Waves Ship Positions

CMA CGM Musca

Last reported at 2014-Jul-29 02:31 UTC. Time now 2014-Jul-29 02:37 UTC.
Position N 30°30' E 122°29'.

Length 347 m; draft 13.7 m.

Type: Ship (hazmat cat A). MMSI: 235070914.

Date/timePositionNaut miles runAvg speedWind from/ knotsBaromVisibWave heightAir tempDewpointWater temp
2014-Jul-29 02:31N 30°30' E 122°29'0 0.1
2014-Jul-29 01:31N 30°30' E 122°29'0 0.3
2014-Jul-29 00:30N 30°29' E 122°29'0 0.1
2014-Jul-28 23:30N 30°29' E 122°29'0 0.0
2014-Jul-28 22:30N 30°29' E 122°29'0 0.0
2014-Jul-28 21:29N 30°29' E 122°29'0 0.0
2014-Jul-28 20:23N 30°30' E 122°29'0 0.0
2014-Jul-28 19:28N 30°30' E 122°29'0 0.1
2014-Jul-28 18:28N 30°30' E 122°29'0 0.2
2014-Jul-28 17:21N 30°30' E 122°29'0 0.2
2014-Jul-28 16:33N 30°30' E 122°29'0 0.1
2014-Jul-28 15:33N 30°30' E 122°29'0 0.0
2014-Jul-28 14:20N 30°30' E 122°29'0 0.1
2014-Jul-28 13:26N 30°30' E 122°29'0 0.1
2014-Jul-28 12:31N 30°30' E 122°29'0 0.2
2014-Jul-28 11:07N 30°29' E 122°29'0 0.1
2014-Jul-28 10:24N 30°29' E 122°29'0 0.0
2014-Jul-28 09:30N 30°29' E 122°29'0 0.1
2014-Jul-28 08:30N 30°30' E 122°29'0 0.1
2014-Jul-28 07:33N 30°29' E 122°29'5 5.3
2014-Jul-28 06:34N 30°32' E 122°35'10 9.9
2014-Jul-28 05:33N 30°35' E 122°46'1110.8
2014-Jul-28 04:33N 30°38' E 122°58'1110.8
2014-Jul-28 03:30N 30°42' E 123°10'1010.2
2014-Jul-28 02:33N 30°50' E 123°17'11 9.7
2014-Jul-28 01:24N 31°01' E 123°17'19211.8
2014-Jul-27 09:10N 34°09' E 122°29'1520.8
2014-Jul-27 08:28N 34°20' E 122°17'11719.9
2014-Jul-27 02:33N 35°51' E 120°48'1717.5
2014-Jul-27 01:33N 35°59' E 120°29'1312.8
2014-Jul-27 00:32N 36°00' E 120°13'1 0.4
2014-Jul-26 23:09N 36°00' E 120°12'0 0.0
2014-Jul-26 22:03N 36°00' E 120°12'0 0.0
2014-Jul-26 21:33N 36°00' E 120°12'0 0.0
2014-Jul-26 20:20N 36°00' E 120°12'0 0.0
2014-Jul-26 19:14N 36°00' E 120°12'0 0.0
2014-Jul-26 15:24N 36°00' E 120°12'0 0.0
2014-Jul-26 14:30N 36°00' E 120°12'0 0.0
2014-Jul-26 11:16N 36°00' E 120°12'0 0.0
2014-Jul-26 09:31N 36°00' E 120°12'0 0.0
2014-Jul-26 08:30N 36°00' E 120°12'0 0.0
2014-Jul-26 07:30N 36°00' E 120°12'0 0.0
2014-Jul-26 00:33N 36°00' E 120°12'0 0.0
2014-Jul-25 23:14N 36°00' E 120°12'1 1.8
2014-Jul-25 22:33N 36°01' E 120°13'9 9.3
2014-Jul-25 21:33N 36°01' E 120°25'1615.7
2014-Jul-25 20:33N 35°57' E 120°44'7 0.2
2014-Jul-24 10:05N 35°57' E 120°52'4 8.1
2014-Jul-24 09:33N 35°57' E 120°47'  
2014-Jul-21 19:51N 36°19' E 123°44'1519.6
2014-Jul-21 19:05N 36°32' E 123°35'1819.2
2014-Jul-21 18:08N 36°47' E 123°23'3018.9
2014-Jul-21 16:32N 37°14' E 123°06'2219.1
2014-Jul-21 15:22N 37°34' E 122°53'2619.8
2014-Jul-21 14:04N 37°57' E 122°37'5519.5
2014-Jul-21 11:16N 38°44' E 122°03'1216.7
2014-Jul-21 10:33N 38°55' E 121°55'4 0.1
2014-Jul-20 06:31N 38°58' E 121°57'9 9.8
2014-Jul-20 05:33N 38°49' E 121°56'2 1.6
2014-Jul-20 04:33N 38°47' E 121°57'0 0.0
2014-Jul-20 03:33N 38°47' E 121°57'0 0.0
2014-Jul-20 02:33N 38°47' E 121°57'0 0.1
2014-Jul-20 01:32N 38°47' E 121°57'0 0.1
2014-Jul-20 00:32N 38°47' E 121°57'0 0.0
2014-Jul-19 23:19N 38°47' E 121°57'0 0.0
2014-Jul-19 22:25N 38°47' E 121°57'0 0.0
2014-Jul-19 21:30N 38°47' E 121°57'0 0.0
2014-Jul-19 20:30N 38°47' E 121°57'0 0.0
2014-Jul-19 19:24N 38°47' E 121°57'0 0.1
2014-Jul-19 17:23N 38°47' E 121°57'0 0.0
2014-Jul-19 13:27N 38°48' E 121°58'0 0.1
2014-Jul-19 11:08N 38°47' E 121°57'0 0.0
2014-Jul-19 10:32N 38°47' E 121°57'0 0.0
2014-Jul-19 09:31N 38°47' E 121°57'0 0.0
2014-Jul-19 07:31N 38°47' E 121°57'7 7.7
2014-Jul-19 06:33N 38°43' E 121°50'1313.6
2014-Jul-19 05:34N 38°32' E 121°39'1414.1
2014-Jul-19 04:33N 38°30' E 121°21'  

Dump ship's entire track history